Time;durP1;ratioP1;P1;durP2;ratioP2;P2;SDS_P1;SDS_P2;PMS_P1;PMS_P2;Temp;Humidity;BMP_temperature;BMP_pressure;BME280_temperature;BME280_humidity;BME280_pressure;Samples;Min_cycle;Max_cycle;Signal;HPM_P1;HPM_P2
2021/07/13 00:02:22;;;;;;;8.43;7.65;;;;;;;18.71;75.50;96210.20;1760895;80;20927;-79
2021/07/13 00:04:49;;;;;;;8.98;8.10;;;;;;;18.66;75.58;96202.22;1778055;79;21220;-79
2021/07/13 00:07:15;;;;;;;8.93;8.03;;;;;;;18.59;75.67;96205.77;1756923;80;21184;-79
2021/07/13 00:09:41;;;;;;;8.78;7.83;;;;;;;18.57;75.74;96202.59;1749139;80;21267;-79
2021/07/13 00:12:09;;;;;;;9.13;8.23;;;;;;;18.52;75.73;96199.84;1769196;80;20998;-79
2021/07/13 00:14:35;;;;;;;9.08;8.18;;;;;;;18.48;75.87;96195.30;1805840;78;20977;-79
2021/07/13 00:17:06;;;;;;;9.53;8.60;;;;;;;18.46;76.19;96188.95;1781797;78;21013;-79
2021/07/13 00:19:31;;;;;;;8.83;8.03;;;;;;;18.42;76.31;96185.73;1794334;78;21352;-78
2021/07/13 00:21:57;;;;;;;9.40;8.50;;;;;;;18.37;76.37;96185.61;1795862;78;20954;-79
2021/07/13 00:24:23;;;;;;;9.25;8.35;;;;;;;18.32;76.60;96179.75;1777554;78;21032;-79
2021/07/13 00:26:48;;;;;;;10.82;9.75;;;;;;;18.29;77.26;96174.97;1785722;78;21269;-78
2021/07/13 00:29:14;;;;;;;10.53;9.63;;;;;;;18.32;78.07;96169.23;1791097;78;20964;-78
2021/07/13 00:31:40;;;;;;;12.58;11.45;;;;;;;18.42;79.05;96173.89;1789929;78;20992;-78
2021/07/13 00:34:05;;;;;;;11.97;10.78;;;;;;;18.53;79.14;96178.28;1770445;79;20948;-79
2021/07/13 00:36:31;;;;;;;11.10;9.98;;;;;;;18.68;79.12;96175.94;1789809;78;20942;-78
2021/07/13 00:38:57;;;;;;;10.80;9.75;;;;;;;18.88;78.87;96170.23;1807955;78;20944;-78
2021/07/13 00:41:23;;;;;;;10.70;9.75;;;;;;;19.01;78.53;96173.05;1791097;78;20913;-78
2021/07/13 00:43:49;;;;;;;11.45;10.48;;;;;;;19.11;78.15;96170.59;1768237;80;20867;-79
2021/07/13 00:46:14;;;;;;;11.15;10.25;;;;;;;19.24;78.08;96168.16;1820760;78;20924;-79
2021/07/13 00:48:40;;;;;;;11.97;10.88;;;;;;;19.34;77.80;96170.91;1780300;79;20938;-78
2021/07/13 00:51:06;;;;;;;10.78;9.88;;;;;;;19.42;77.38;96166.05;1750753;79;21255;-79
2021/07/13 00:53:32;;;;;;;12.15;10.60;;;;;;;19.55;77.34;96164.94;1776681;79;21290;-79
2021/07/13 00:55:58;;;;;;;10.18;9.28;;;;;;;19.61;77.09;96155.25;1747686;79;21036;-79
2021/07/13 00:58:25;;;;;;;11.78;10.55;;;;;;;19.68;76.84;96155.86;1776199;79;21005;-79
2021/07/13 01:00:51;;;;;;;11.18;10.18;;;;;;;19.75;76.51;96159.92;1775808;79;21206;-79
2021/07/13 01:03:17;;;;;;;11.15;10.25;;;;;;;19.82;76.34;96155.77;1804361;79;20880;-79
2021/07/13 01:05:46;;;;;;;11.63;10.60;;;;;;;19.87;76.15;96148.47;1779692;80;20908;-79
2021/07/13 01:08:47;;;;;;;10.48;9.40;;;;;;;19.90;76.11;96153.25;1766896;80;20868;-79
2021/07/13 01:11:33;;;;;;;10.40;9.50;;;;;;;19.92;75.86;96141.41;1743537;80;20906;-79
2021/07/13 01:14:06;;;;;;;10.68;9.78;;;;;;;19.94;75.78;96143.27;1792966;79;20888;-79
2021/07/13 01:16:41;;;;;;;11.60;10.43;;;;;;;19.96;75.63;96149.61;1789763;79;21236;-78
2021/07/13 01:19:31;;;;;;;11.95;10.88;;;;;;;19.95;75.72;96144.06;1794670;79;21015;-80
2021/07/13 01:22:09;;;;;;;10.65;9.73;;;;;;;19.91;75.69;96149.56;1787091;79;20926;-79
2021/07/13 01:25:01;;;;;;;12.68;8.85;;;;;;;19.86;75.71;96145.04;1787172;79;20921;-79
2021/07/13 01:27:50;;;;;;;9.73;8.83;;;;;;;19.86;75.84;96139.77;1787546;79;21406;-79
2021/07/13 01:30:20;;;;;;;11.40;10.30;;;;;;;19.85;75.89;96146.58;1809010;79;20910;-79
2021/07/13 01:32:51;;;;;;;10.85;9.75;;;;;;;19.81;75.76;96140.20;1786786;79;20920;-80
2021/07/13 01:35:22;;;;;;;10.88;9.98;;;;;;;19.77;75.88;96133.31;1773529;79;21295;-80
2021/07/13 01:37:53;;;;;;;11.12;10.03;;;;;;;19.74;76.23;96143.03;1743377;79;20963;-79
2021/07/13 01:40:18;;;;;;;9.85;8.95;;;;;;;19.67;76.28;96140.56;1781509;79;20896;-79
2021/07/13 01:42:44;;;;;;;10.13;9.23;;;;;;;19.62;76.31;96135.76;1743884;81;21236;-80
2021/07/13 01:45:11;;;;;;;9.98;9.05;;;;;;;19.60;76.44;96136.01;1772325;80;20934;-80
2021/07/13 01:47:37;;;;;;;11.57;10.58;;;;;;;19.55;76.50;96134.63;1771447;79;20999;-79
2021/07/13 01:50:05;;;;;;;11.60;10.38;;;;;;;19.52;76.62;96133.75;1766752;80;21281;-80
2021/07/13 01:52:32;;;;;;;11.00;10.00;;;;;;;19.50;76.62;96129.25;1766450;80;20914;-79
2021/07/13 01:54:58;;;;;;;10.15;9.25;;;;;;;19.45;76.64;96137.09;1724544;81;21011;-79
2021/07/13 01:57:26;;;;;;;10.60;9.60;;;;;;;19.41;76.70;96132.83;1773053;80;20984;-80
2021/07/13 01:59:52;;;;;;;10.75;9.85;;;;;;;19.39;76.88;96130.17;1766909;80;20899;-80
2021/07/13 02:02:18;;;;;;;10.72;9.83;;;;;;;19.41;76.79;96138.63;1766445;80;21023;-80
2021/07/13 02:04:43;;;;;;;11.38;10.28;;;;;;;19.41;76.77;96130.72;1766208;80;20903;-80
2021/07/13 02:07:09;;;;;;;11.43;10.43;;;;;;;19.42;77.22;96129.16;1766994;80;20977;-80
2021/07/13 02:09:36;;;;;;;11.68;10.45;;;;;;;19.43;76.83;96135.23;1750459;80;20884;-80
2021/07/13 02:12:03;;;;;;;10.28;9.40;;;;;;;19.45;76.76;96128.66;1766887;80;20903;-79
2021/07/13 02:14:28;;;;;;;10.75;9.78;;;;;;;19.48;76.75;96123.42;1766880;80;20899;-80
2021/07/13 02:16:54;;;;;;;11.68;10.68;;;;;;;19.50;76.52;96123.45;1772219;80;20973;-80
2021/07/13 02:19:21;;;;;;;11.15;9.98;;;;;;;19.54;76.48;96130.89;1765993;80;21356;-80
2021/07/13 02:21:48;;;;;;;11.43;10.32;;;;;;;19.52;76.45;96127.16;1747020;80;20954;-79
2021/07/13 02:24:16;;;;;;;9.80;8.90;;;;;;;19.53;76.43;96131.94;1766852;80;20935;-79
2021/07/13 02:26:52;;;;;;;9.88;9.03;;;;;;;19.54;76.28;96133.53;1766952;80;21264;-79
2021/07/13 02:29:38;;;;;;;11.25;10.13;;;;;;;19.56;76.06;96134.91;1755260;80;20982;-80
2021/07/13 02:32:11;;;;;;;10.63;9.63;;;;;;;19.41;75.41;96147.33;1760419;80;20982;-79
2021/07/13 02:34:40;;;;;;;13.62;10.80;;;;;;;19.22;75.60;96150.48;1766324;80;20959;-80
2021/07/13 02:37:07;;;;;;;10.90;9.90;;;;;;;18.99;76.11;96156.18;1765209;80;21035;-80
2021/07/13 02:39:34;;;;;;;12.05;10.53;;;;;;;18.77;76.46;96160.57;1766603;80;21295;-80
2021/07/13 02:41:59;;;;;;;11.63;10.40;;;;;;;18.60;76.76;96159.21;1774152;80;20973;-80
2021/07/13 02:44:28;;;;;;;12.65;9.55;;;;;;;18.47;76.89;96160.81;1767105;80;20987;-79
2021/07/13 02:46:56;;;;;;;10.75;9.55;;;;;;;18.45;77.55;96157.63;1765538;80;21036;-79
2021/07/13 02:49:26;;;;;;;10.60;9.55;;;;;;;18.45;77.91;96154.48;1777652;79;21016;-80
2021/07/13 02:51:51;;;;;;;10.05;9.15;;;;;;;18.46;77.88;96153.96;1740042;80;21023;-79
2021/07/13 02:54:22;;;;;;;10.70;9.48;;;;;;;18.47;77.88;96151.61;1769949;80;20877;-80
2021/07/13 02:56:49;;;;;;;10.07;9.10;;;;;;;18.49;77.79;96146.39;1793899;80;20958;-80
2021/07/13 02:59:19;;;;;;;9.33;8.38;;;;;;;18.49;77.68;96158.23;1779331;79;21330;-79
2021/07/13 03:01:44;;;;;;;11.40;9.83;;;;;;;18.46;77.61;96144.23;1692990;83;21248;-80
2021/07/13 03:04:10;;;;;;;10.55;9.45;;;;;;;18.38;77.85;96140.66;1755192;80;20933;-80
2021/07/13 03:06:36;;;;;;;11.05;8.95;;;;;;;18.34;77.81;96142.17;1786221;80;20940;-79
2021/07/13 03:09:03;;;;;;;10.20;9.23;;;;;;;18.31;78.00;96150.54;1742481;81;20927;-80
2021/07/13 03:11:33;;;;;;;12.05;9.85;;;;;;;18.28;77.98;96145.75;1721217;81;20887;-80
2021/07/13 03:14:01;;;;;;;11.43;9.23;;;;;;;18.27;78.14;96146.27;1736283;81;20924;-79
2021/07/13 03:16:28;;;;;;;11.05;10.03;;;;;;;18.27;78.25;96147.59;1727257;82;20929;-80
2021/07/13 03:18:54;;;;;;;10.63;9.63;;;;;;;18.30;78.38;96147.62;1729425;82;20975;-80
2021/07/13 03:21:22;;;;;;;10.32;9.33;;;;;;;18.31;78.34;96141.33;1756685;80;20963;-79
2021/07/13 03:23:47;;;;;;;9.50;8.60;;;;;;;18.32;78.52;96138.98;1789924;79;20942;-79
2021/07/13 03:26:13;;;;;;;9.33;8.30;;;;;;;18.30;78.67;96142.37;1750252;80;20908;-79
2021/07/13 03:28:38;;;;;;;11.30;8.50;;;;;;;18.30;78.77;96145.80;1745761;80;20901;-79
2021/07/13 03:31:04;;;;;;;9.63;7.70;;;;;;;18.32;78.67;96142.93;1751995;80;20885;-79
2021/07/13 03:33:30;;;;;;;9.60;8.73;;;;;;;18.33;78.69;96141.09;1775449;80;20908;-79
2021/07/13 03:35:55;;;;;;;9.93;8.98;;;;;;;18.31;78.72;96146.59;1783942;80;20971;-80
2021/07/13 03:38:21;;;;;;;9.70;8.90;;;;;;;18.29;78.73;96144.20;1767259;80;21225;-79
2021/07/13 03:40:48;;;;;;;10.93;9.88;;;;;;;18.30;78.81;96151.58;1783572;80;20959;-79
2021/07/13 03:43:15;;;;;;;9.58;8.60;;;;;;;18.30;78.71;96148.95;1752523;80;20927;-79
2021/07/13 03:45:41;;;;;;;10.10;7.92;;;;;;;18.30;78.62;96149.74;1742579;81;21265;-79
2021/07/13 03:48:10;;;;;;;9.33;7.92;;;;;;;18.31;78.81;96158.43;1748884;81;21273;-79
2021/07/13 03:50:35;;;;;;;9.15;8.28;;;;;;;18.32;78.57;96153.97;1758351;79;20954;-79
2021/07/13 03:53:02;;;;;;;9.48;8.43;;;;;;;18.29;78.58;96149.98;1740890;81;21268;-79
2021/07/13 03:55:28;;;;;;;8.90;8.10;;;;;;;18.25;78.73;96146.23;1785488;79;20912;-79
2021/07/13 03:57:54;;;;;;;8.65;7.85;;;;;;;18.22;78.90;96149.31;1743425;80;20925;-79
2021/07/13 04:00:21;;;;;;;8.03;7.22;;;;;;;18.20;79.11;96145.60;1775054;80;20926;-79
2021/07/13 04:02:46;;;;;;;8.33;7.62;;;;;;;18.23;79.12;96146.47;1781037;79;20973;-80
2021/07/13 04:05:13;;;;;;;9.05;8.18;;;;;;;18.27;79.24;96142.33;1780532;79;21086;-80
2021/07/13 04:07:39;;;;;;;9.68;8.10;;;;;;;18.30;79.32;96143.69;1773230;79;21246;-79
2021/07/13 04:10:08;;;;;;;8.93;7.80;;;;;;;18.28;79.26;96136.55;1804215;79;20923;-80
2021/07/13 04:12:34;;;;;;;8.28;7.58;;;;;;;18.29;79.50;96142.89;1783703;78;21321;-79
2021/07/13 04:14:59;;;;;;;9.30;7.85;;;;;;;18.29;79.49;96144.72;1766076;80;20942;-79
2021/07/13 04:17:25;;;;;;;8.48;7.75;;;;;;;18.29;79.70;96137.63;1805305;79;20959;-79
2021/07/13 04:19:52;;;;;;;7.35;6.65;;;;;;;18.32;79.69;96144.24;1785125;79;20991;-79
2021/07/13 04:22:17;;;;;;;8.58;7.67;;;;;;;18.35;79.73;96140.34;1773500;79;21232;-80
2021/07/13 04:24:43;;;;;;;9.23;8.30;;;;;;;18.39;79.91;96133.08;1768527;79;20909;-80
2021/07/13 04:27:09;;;;;;;8.73;7.92;;;;;;;18.42;80.14;96127.86;1771914;79;20926;-79
2021/07/13 04:29:34;;;;;;;8.33;7.53;;;;;;;18.43;80.13;96131.56;1767112;79;21256;-80
2021/07/13 04:32:00;;;;;;;9.00;8.20;;;;;;;18.45;80.40;96133.44;1771566;79;20915;-79
2021/07/13 04:34:27;;;;;;;9.25;8.35;;;;;;;18.48;80.31;96132.16;1777976;79;21032;-79
2021/07/13 04:36:52;;;;;;;8.55;7.75;;;;;;;18.52;80.54;96130.13;1771341;79;21240;-79
2021/07/13 04:39:18;;;;;;;8.45;7.60;;;;;;;18.58;80.54;96136.28;1773484;80;21002;-80
2021/07/13 04:41:44;;;;;;;9.45;8.55;;;;;;;18.62;80.75;96133.45;1773790;79;20933;-80
2021/07/13 04:44:10;;;;;;;9.98;9.08;;;;;;;18.64;80.81;96139.82;1765241;79;20928;-79
2021/07/13 04:46:36;;;;;;;9.93;8.93;;;;;;;18.65;81.08;96136.95;1762010;80;21006;-79
2021/07/13 04:49:02;;;;;;;8.90;8.20;;;;;;;18.63;81.28;96140.34;1768865;79;21051;-79
2021/07/13 04:51:27;;;;;;;8.98;8.20;;;;;;;18.64;81.46;96138.51;1763425;80;20981;-79
2021/07/13 04:53:53;;;;;;;8.05;7.35;;;;;;;18.67;81.67;96135.39;1762577;80;21221;-79
2021/07/13 04:56:19;;;;;;;8.78;7.97;;;;;;;18.69;81.79;96134.11;1734837;81;20907;-79
2021/07/13 04:58:45;;;;;;;9.18;8.38;;;;;;;18.74;81.93;96132.91;1775320;80;20934;-80
2021/07/13 05:01:11;;;;;;;8.53;7.58;;;;;;;18.76;81.97;96128.19;1747650;80;20943;-79
2021/07/13 05:03:36;;;;;;;8.55;7.85;;;;;;;18.81;82.01;96128.27;1793474;79;21241;-79
2021/07/13 05:06:02;;;;;;;9.70;8.70;;;;;;;18.91;82.06;96128.95;1762175;79;20932;-79
2021/07/13 05:08:28;;;;;;;9.13;8.28;;;;;;;18.96;82.27;96127.70;1775187;79;20959;-80
2021/07/13 05:10:54;;;;;;;9.85;8.95;;;;;;;19.00;82.19;96134.08;1807761;79;21273;-79
2021/07/13 05:13:20;;;;;;;9.40;8.50;;;;;;;19.05;82.56;96134.17;1789168;79;21031;-79
2021/07/13 05:15:45;;;;;;;8.73;7.92;;;;;;;19.15;82.59;96133.51;1807538;79;21030;-80
2021/07/13 05:18:12;;;;;;;9.00;8.20;;;;;;;19.18;82.33;96136.45;1794655;79;20971;-80
2021/07/13 05:20:43;;;;;;;9.00;7.70;;;;;;;19.23;82.31;96133.11;1797441;79;21053;-80
2021/07/13 05:23:06;;;;;;;8.63;7.85;;;;;;;19.28;82.31;96132.38;1773925;79;20960;-80
2021/07/13 05:25:33;;;;;;;8.60;7.80;;;;;;;19.34;82.29;96140.62;1788769;79;20924;-80
2021/07/13 05:27:59;;;;;;;10.08;9.08;;;;;;;19.42;82.28;96141.53;1811880;79;20884;-81
2021/07/13 05:30:25;;;;;;;9.63;8.25;;;;;;;19.43;82.40;96134.70;1785598;79;20963;-80
2021/07/13 05:32:52;;;;;;;8.45;7.75;;;;;;;19.43;82.61;96136.54;1775710;79;21247;-80
2021/07/13 05:35:18;;;;;;;8.70;7.90;;;;;;;19.46;82.51;96132.89;1774546;79;21795;-80
2021/07/13 05:37:43;;;;;;;9.35;8.55;;;;;;;19.52;82.77;96129.00;1756104;80;20904;-80
2021/07/13 05:40:10;;;;;;;8.38;7.60;;;;;;;19.64;83.33;96129.72;1785310;79;20958;-79
2021/07/13 05:42:36;;;;;;;9.75;8.75;;;;;;;19.76;83.02;96125.13;1777964;79;20899;-80
2021/07/13 05:45:03;;;;;;;8.40;7.47;;;;;;;19.86;82.87;96133.70;1776305;79;20879;-80
2021/07/13 05:47:29;;;;;;;9.25;8.45;;;;;;;19.89;82.70;96126.61;1778804;79;20902;-80
2021/07/13 05:49:55;;;;;;;10.95;9.95;;;;;;;19.95;82.71;96128.25;1778995;79;20976;-80
2021/07/13 05:52:21;;;;;;;10.43;9.63;;;;;;;20.01;82.32;96130.71;1770820;80;20977;-79
2021/07/13 05:54:46;;;;;;;10.63;9.73;;;;;;;20.08;82.17;96127.34;1781922;80;21332;-80
2021/07/13 05:57:12;;;;;;;9.10;8.20;;;;;;;20.17;82.40;96125.05;1749197;81;21039;-80
2021/07/13 05:59:38;;;;;;;9.10;7.92;;;;;;;20.29;82.12;96123.59;1742160;81;20920;-80
2021/07/13 06:02:04;;;;;;;10.30;9.33;;;;;;;20.39;82.06;96124.50;1774373;80;20958;-80
2021/07/13 06:04:30;;;;;;;13.25;11.38;;;;;;;20.50;81.85;96128.56;1789748;80;20987;-80
2021/07/13 06:06:55;;;;;;;11.40;10.32;;;;;;;20.54;81.59;96127.84;1753519;80;20963;-80
2021/07/13 06:09:21;;;;;;;12.18;10.98;;;;;;;20.57;81.43;96131.81;1760536;80;21333;-80
2021/07/13 06:11:47;;;;;;;10.48;9.48;;;;;;;20.65;81.74;96111.54;1763287;80;21039;-80
2021/07/13 06:14:12;;;;;;;9.68;8.73;;;;;;;20.65;81.74;96111.54;1732527;81;20995;-81
2021/07/13 06:16:38;;;;;;;11.35;9.85;;;;;;;20.73;81.31;96128.78;1748682;80;20968;-80
2021/07/13 06:19:04;;;;;;;13.08;10.43;;;;;;;20.80;81.32;96122.75;1725713;81;21195;-80
2021/07/13 06:21:30;;;;;;;11.85;10.80;;;;;;;20.84;80.99;96132.58;1738796;81;20988;-80
2021/07/13 06:23:58;;;;;;;12.10;10.90;;;;;;;20.87;80.99;96127.31;1717377;81;21206;-80
2021/07/13 06:26:24;;;;;;;13.40;11.63;;;;;;;20.92;81.09;96126.02;1754633;80;20908;-80
2021/07/13 06:28:49;;;;;;;12.43;11.05;;;;;;;21.01;81.15;96131.64;1754600;80;20995;-82
2021/07/13 06:31:15;;;;;;;15.15;11.05;;;;;;;21.01;81.13;96112.63;1750221;80;21062;-80
2021/07/13 06:33:41;;;;;;;11.28;10.25;;;;;;;21.19;81.12;96125.42;1747499;80;21257;-80
2021/07/13 06:36:08;;;;;;;10.60;9.53;;;;;;;21.33;80.96;96131.09;1743612;80;20936;-81
2021/07/13 06:38:34;;;;;;;12.07;10.85;;;;;;;21.40;80.35;96129.53;1753412;80;21043;-80
2021/07/13 06:40:59;;;;;;;12.63;11.33;;;;;;;21.49;80.39;96134.09;1749243;80;21034;-80
2021/07/13 06:43:25;;;;;;;12.37;11.28;;;;;;;21.63;80.45;96133.08;1761534;80;21052;-80
2021/07/13 06:45:51;;;;;;;14.53;10.13;;;;;;;21.73;80.10;96127.05;1765065;80;21027;-80
2021/07/13 06:48:17;;;;;;;12.82;10.20;;;;;;;21.79;79.99;96129.45;1759327;80;20956;-81
2021/07/13 06:50:42;;;;;;;11.30;9.98;;;;;;;21.88;79.80;96121.30;1771446;79;21031;-80
2021/07/13 06:53:08;;;;;;;12.07;10.85;;;;;;;21.99;79.76;96123.98;1777590;79;20908;-80
2021/07/13 06:55:34;;;;;;;12.20;11.00;;;;;;;22.05;79.22;96118.47;1778194;79;21013;-80
2021/07/13 06:58:00;;;;;;;11.48;10.30;;;;;;;;;;1777706;79;20928;-80
2021/07/13 07:00:25;;;;;;;12.55;11.18;;;;;;;22.16;78.84;96128.03;1776226;79;20931;-80
2021/07/13 07:02:51;;;;;;;9.95;8.90;;;;;;;22.20;78.60;96118.25;1780310;79;20876;-80
2021/07/13 07:05:17;;;;;;;10.50;9.43;;;;;;;22.29;78.69;96117.48;1769217;79;21012;-78
2021/07/13 07:07:47;;;;;;;13.00;10.68;;;;;;;22.39;78.58;96116.16;1766835;79;21064;-79
2021/07/13 07:10:13;;;;;;;10.23;9.33;;;;;;;22.45;77.81;96114.30;1780468;79;20886;-79
2021/07/13 07:12:39;;;;;;;11.18;10.08;;;;;;;22.45;77.67;96107.19;1776809;79;21024;-78
2021/07/13 07:15:06;;;;;;;10.95;9.58;;;;;;;22.50;77.54;96108.25;1764898;79;20929;-79
2021/07/13 07:17:32;;;;;;;9.93;8.95;;;;;;;22.53;77.40;96107.18;1772163;79;21341;-80
2021/07/13 07:20:00;;;;;;;9.90;9.00;;;;;;;22.62;77.75;96110.11;1771308;79;20983;-79
2021/07/13 07:22:25;;;;;;;10.58;9.48;;;;;;;22.68;77.50;96111.16;1765017;79;20948;-80
2021/07/13 07:24:51;;;;;;;10.55;9.60;;;;;;;22.71;76.97;96107.98;1767458;79;21012;-80
2021/07/13 07:27:16;;;;;;;11.00;9.80;;;;;;;22.83;77.43;96101.66;1763785;79;21040;-80
2021/07/13 07:29:42;;;;;;;10.00;9.00;;;;;;;22.92;76.26;96104.02;1771337;79;20971;-81
2021/07/13 07:32:08;;;;;;;9.55;8.75;;;;;;;22.99;76.84;96101.38;1777272;79;20972;-81
2021/07/13 07:34:34;;;;;;;10.50;9.50;;;;;;;23.09;76.91;96103.20;1765423;79;21013;-79
2021/07/13 07:36:59;;;;;;;10.10;9.10;;;;;;;23.14;76.73;96103.22;1764657;79;21020;-80
2021/07/13 07:39:25;;;;;;;11.05;9.70;;;;;;;23.23;76.38;96107.42;1766052;79;20989;-81
2021/07/13 07:41:52;;;;;;;10.60;9.53;;;;;;;23.34;76.54;96103.70;1770077;79;21329;-80
2021/07/13 07:44:18;;;;;;;10.18;9.33;;;;;;;23.48;76.26;96101.28;1783087;79;21008;-81
2021/07/13 07:46:45;;;;;;;9.75;8.80;;;;;;;23.52;75.78;96099.14;1762004;79;20909;-81
2021/07/13 07:49:10;;;;;;;10.72;9.75;;;;;;;23.55;76.26;96105.75;1755766;79;20948;-81
2021/07/13 07:51:37;;;;;;;9.78;8.98;;;;;;;23.54;75.68;96094.35;1782702;79;20961;-80
2021/07/13 07:54:02;;;;;;;9.40;8.50;;;;;;;23.60;75.79;96097.83;1767252;79;20985;-80
2021/07/13 07:56:28;;;;;;;9.93;8.95;;;;;;;23.65;75.90;96101.78;1750679;80;21312;-80
2021/07/13 07:58:54;;;;;;;8.50;7.70;;;;;;;23.72;75.69;96094.84;1784689;79;20963;-81
2021/07/13 08:01:20;;;;;;;10.13;9.10;;;;;;;23.71;75.40;96092.73;1773512;79;20977;-80
2021/07/13 08:03:45;;;;;;;8.75;7.75;;;;;;;23.77;75.91;96088.22;1779799;79;20956;-81
2021/07/13 08:06:11;;;;;;;9.90;9.03;;;;;;;23.76;74.28;96086.62;1755720;79;21224;-81
2021/07/13 08:08:37;;;;;;;9.98;8.95;;;;;;;23.81;75.00;96087.39;1749721;79;21220;-80
2021/07/13 08:11:03;;;;;;;10.45;9.45;;;;;;;23.90;75.01;96086.27;1737679;80;20926;-80
2021/07/13 08:13:28;;;;;;;9.68;8.78;;;;;;;24.09;75.44;96082.48;1753968;79;21006;-81
2021/07/13 08:15:57;;;;;;;10.93;9.85;;;;;;;24.09;75.44;96082.48;1740620;80;20981;-80
2021/07/13 08:18:22;;;;;;;10.15;9.28;;;;;;;24.08;74.56;96082.19;1761683;79;20965;-81
2021/07/13 08:20:49;;;;;;;7.45;6.75;;;;;;;24.17;74.81;96081.35;1737185;80;21024;-81
2021/07/13 08:23:14;;;;;;;10.48;9.58;;;;;;;24.23;73.26;96086.88;1748603;79;21030;-81
2021/07/13 08:25:40;;;;;;;11.43;10.32;;;;;;;24.41;74.34;96092.66;1756062;79;21038;-81
2021/07/13 08:28:06;;;;;;;10.00;9.00;;;;;;;24.58;74.39;96093.07;1740041;80;20890;-81
2021/07/13 08:30:32;;;;;;;10.95;10.05;;;;;;;24.74;73.76;96093.20;1759495;79;20888;-80
2021/07/13 08:32:57;;;;;;;10.15;9.25;;;;;;;24.86;73.68;96091.48;1727973;81;20902;-81
2021/07/13 08:35:23;;;;;;;10.28;9.38;;;;;;;25.03;73.47;96090.56;1755135;79;20943;-81
2021/07/13 08:37:51;;;;;;;10.43;9.05;;;;;;;25.21;72.83;96090.39;1781447;79;21404;-80
2021/07/13 08:40:17;;;;;;;10.10;9.25;;;;;;;25.35;71.94;96090.52;1774779;79;20991;-81
2021/07/13 08:42:43;;;;;;;10.15;9.25;;;;;;;25.40;72.14;96094.47;1786069;79;21024;-81
2021/07/13 08:45:12;;;;;;;10.80;9.90;;;;;;;25.46;71.00;96094.66;1784125;79;21263;-81
2021/07/13 08:47:38;;;;;;;13.68;10.50;;;;;;;25.58;71.07;96092.94;1758845;79;20891;-81
2021/07/13 08:50:05;;;;;;;10.80;9.78;;;;;;;25.71;70.77;96086.43;1767752;79;20987;-81
2021/07/13 08:52:32;;;;;;;10.13;9.20;;;;;;;25.90;70.76;96087.78;1724554;81;20932;-80
2021/07/13 08:54:58;;;;;;;10.15;9.15;;;;;;;26.05;69.75;96094.78;1726062;80;20946;-80
2021/07/13 08:57:24;;;;;;;11.45;10.43;;;;;;;26.17;69.54;96091.13;1737401;80;21003;-80
2021/07/13 08:59:50;;;;;;;10.68;9.88;;;;;;;26.42;69.23;96076.70;1717693;81;21316;-80
2021/07/13 09:02:16;;;;;;;8.90;8.10;;;;;;;26.42;69.23;96076.70;1749503;81;20880;-81
2021/07/13 09:04:42;;;;;;;10.72;9.83;;;;;;;26.54;69.25;96087.70;1739792;81;20957;-81
2021/07/13 09:07:09;;;;;;;10.68;9.75;;;;;;;26.48;67.83;96084.84;1726247;81;20912;-81
2021/07/13 09:09:39;;;;;;;9.93;8.90;;;;;;;26.46;68.37;96092.34;1739281;81;20960;-81
2021/07/13 09:12:21;;;;;;;9.83;8.93;;;;;;;26.52;68.32;96086.39;1750637;81;20896;-81
2021/07/13 09:15:05;;;;;;;9.83;8.83;;;;;;;26.63;67.01;96086.48;1756483;80;21246;-82
2021/07/13 09:17:45;;;;;;;9.50;8.60;;;;;;;26.80;67.46;96083.28;1744821;80;20951;-81
2021/07/13 09:20:29;;;;;;;10.00;9.20;;;;;;;26.96;66.52;96083.82;1754037;80;21454;-81
2021/07/13 09:23:08;;;;;;;9.70;8.90;;;;;;;27.09;66.24;96084.42;1759917;80;20979;-81
2021/07/13 09:25:37;;;;;;;9.55;8.65;;;;;;;27.19;66.06;96085.05;1720168;81;20896;-82
2021/07/13 09:28:20;;;;;;;10.55;9.50;;;;;;;27.36;65.56;96081.80;1738534;81;21004;-82
2021/07/13 09:30:57;;;;;;;10.15;9.35;;;;;;;27.41;66.04;96081.69;1706924;81;21233;-82
2021/07/13 09:33:29;;;;;;;10.05;9.15;;;;;;;27.49;65.48;96078.86;1740962;80;20986;-82
2021/07/13 09:36:09;;;;;;;8.88;8.18;;;;;;;27.49;65.02;96085.53;1758812;80;21056;-80
2021/07/13 09:38:44;;;;;;;9.95;9.15;;;;;;;27.39;64.16;96082.53;1754721;80;20924;-80
2021/07/13 09:41:17;;;;;;;9.30;8.60;;;;;;;27.35;63.91;96060.75;1763245;80;20982;-80
2021/07/13 09:44:00;;;;;;;9.40;8.40;;;;;;;27.44;64.24;96069.09;1707125;81;21275;-80
2021/07/13 09:46:45;;;;;;;9.90;8.90;;;;;;;27.47;63.96;96075.70;1746298;80;20907;-80
2021/07/13 09:49:24;;;;;;;9.05;8.28;;;;;;;27.50;64.02;96076.47;1711344;82;20919;-80
2021/07/13 09:52:00;;;;;;;8.88;8.18;;;;;;;27.49;64.88;96074.31;1719367;81;20990;-80
2021/07/13 09:54:46;;;;;;;9.58;8.70;;;;;;;27.43;65.48;96079.52;1749877;80;21254;-80
2021/07/13 09:57:23;;;;;;;9.53;8.63;;;;;;;27.35;65.28;96077.55;1742786;80;20992;-79
2021/07/13 09:59:51;;;;;;;10.08;9.13;;;;;;;27.23;64.89;96077.78;1773187;80;20908;-80
2021/07/13 10:02:19;;;;;;;9.13;8.33;;;;;;;27.15;66.12;96073.91;1750274;80;20951;-83
2021/07/13 10:04:47;;;;;;;10.53;9.63;;;;;;;27.21;65.19;96072.75;1765986;80;20973;-81
2021/07/13 10:07:18;;;;;;;10.65;9.55;;;;;;;27.27;64.22;96072.09;1751907;80;21062;-81
2021/07/13 10:09:51;;;;;;;10.08;9.15;;;;;;;27.38;64.62;96078.29;1751636;80;20912;-81
2021/07/13 10:12:20;;;;;;;10.75;9.78;;;;;;;27.58;65.84;96077.64;1769070;80;21003;-82
2021/07/13 10:14:48;;;;;;;9.93;9.00;;;;;;;27.66;65.06;96071.11;1757237;80;20996;-81
2021/07/13 10:17:15;;;;;;;10.35;9.45;;;;;;;27.76;63.92;96080.77;1749814;80;21062;-81
2021/07/13 10:20:07;;;;;;;9.65;8.75;;;;;;;27.82;65.53;96070.22;1727875;80;21019;-81
2021/07/13 10:22:34;;;;;;;10.72;9.68;;;;;;;27.87;64.71;96072.80;1725820;81;21030;-81
2021/07/13 10:25:01;;;;;;;10.15;8.78;;;;;;;27.95;62.83;96070.75;1729037;81;20980;-80
2021/07/13 10:27:31;;;;;;;10.18;9.25;;;;;;;28.03;62.77;96074.06;1763821;80;21324;-81
2021/07/13 10:29:58;;;;;;;10.50;9.48;;;;;;;27.97;63.44;96070.45;1748664;80;20988;-81
2021/07/13 10:32:29;;;;;;;10.85;9.80;;;;;;;27.92;62.12;96070.56;1723449;81;20993;-81
2021/07/13 10:35:04;;;;;;;11.88;10.08;;;;;;;27.97;64.01;96069.90;1726911;80;20931;-81
2021/07/13 10:37:34;;;;;;;10.35;9.30;;;;;;;28.04;64.21;96072.97;1726370;80;20994;-81
2021/07/13 10:40:10;;;;;;;9.03;8.33;;;;;;;27.97;63.81;96068.56;1723591;81;21007;-81
2021/07/13 10:42:46;;;;;;;9.88;8.93;;;;;;;27.91;63.89;96067.11;1713370;81;20939;-81
2021/07/13 10:45:34;;;;;;;9.35;8.63;;;;;;;27.92;63.34;96058.00;1716661;81;21329;-81
2021/07/13 10:48:13;;;;;;;9.50;8.55;;;;;;;27.88;62.28;96067.71;1728547;81;20944;-81
2021/07/13 10:50:41;;;;;;;9.53;8.68;;;;;;;27.91;62.66;96071.66;1727828;80;21011;-81
2021/07/13 10:53:25;;;;;;;10.15;9.15;;;;;;;27.99;62.33;96063.73;1754881;79;20914;-82
2021/07/13 10:56:07;;;;;;;9.55;8.83;;;;;;;28.18;62.40;96051.56;1762195;79;21329;-81
2021/07/13 10:58:38;;;;;;;9.58;8.55;;;;;;;28.23;62.37;96047.98;1745176;79;21036;-81
2021/07/13 11:01:13;;;;;;;9.40;8.50;;;;;;;28.31;62.88;96041.41;1773006;79;21337;-81
2021/07/13 11:03:44;;;;;;;9.85;8.88;;;;;;;28.30;61.57;96036.34;1745838;79;20906;-82
2021/07/13 11:06:16;;;;;;;9.83;8.43;;;;;;;28.31;62.62;96038.75;1755730;79;20963;-81
2021/07/13 11:08:48;;;;;;;8.83;8.13;;;;;;;28.40;62.35;96041.47;1744433;79;20969;-81
2021/07/13 11:11:34;;;;;;;9.88;9.08;;;;;;;28.42;62.79;96032.59;1769695;79;20987;-81
2021/07/13 11:14:05;;;;;;;9.83;8.93;;;;;;;28.45;63.35;96031.98;1747960;79;21012;-81
2021/07/13 11:16:35;;;;;;;9.00;8.23;;;;;;;28.43;62.76;96035.51;1757251;79;20979;-82
2021/07/13 11:19:07;;;;;;;9.37;8.50;;;;;;;28.36;62.12;96029.81;1760199;79;20944;-80
2021/07/13 11:21:35;;;;;;;9.58;8.68;;;;;;;28.42;61.79;96022.45;1755234;79;20993;-81
2021/07/13 11:24:09;;;;;;;9.23;8.43;;;;;;;28.54;63.14;96020.81;1749566;80;20932;-80
2021/07/13 11:26:38;;;;;;;9.10;8.40;;;;;;;28.40;62.02;96023.55;1784599;78;21007;-82
2021/07/13 11:29:08;;;;;;;9.53;8.73;;;;;;;28.23;62.68;96015.92;1755323;80;21052;-81
2021/07/13 11:31:36;;;;;;;9.18;8.48;;;;;;;28.07;63.01;96020.83;1764328;80;20926;-82
2021/07/13 11:34:09;;;;;;;9.95;8.95;;;;;;;28.06;63.39;96020.04;1768700;78;20908;-80
2021/07/13 11:36:41;;;;;;;9.50;8.75;;;;;;;28.15;62.33;96016.63;1783914;78;20939;-80